sensor_id;sensor_type;location;lat;lon;timestamp;P1;durP1;ratioP1;P2;durP2;ratioP2
10162;SDS011;5123;52.556;13.384;2023-07-02T00:01:54;4.20;;;3.27;;
10162;SDS011;5123;52.556;13.384;2023-07-02T00:04:29;3.40;;;3.10;;
10162;SDS011;5123;52.556;13.384;2023-07-02T00:07:03;3.77;;;3.47;;
10162;SDS011;5123;52.556;13.384;2023-07-02T00:09:37;3.70;;;3.40;;
10162;SDS011;5123;52.556;13.384;2023-07-02T00:12:12;4.40;;;3.30;;
10162;SDS011;5123;52.556;13.384;2023-07-02T00:14:45;3.23;;;3.03;;
10162;SDS011;5123;52.556;13.384;2023-07-02T00:17:18;3.13;;;2.93;;
10162;SDS011;5123;52.556;13.384;2023-07-02T00:19:51;3.40;;;3.20;;
10162;SDS011;5123;52.556;13.384;2023-07-02T00:22:25;3.50;;;3.30;;
10162;SDS011;5123;52.556;13.384;2023-07-02T00:25:01;3.43;;;3.13;;
10162;SDS011;5123;52.556;13.384;2023-07-02T00:27:34;3.87;;;3.27;;
10162;SDS011;5123;52.556;13.384;2023-07-02T00:30:15;3.40;;;2.90;;
10162;SDS011;5123;52.556;13.384;2023-07-02T00:32:47;3.80;;;3.40;;
10162;SDS011;5123;52.556;13.384;2023-07-02T00:35:20;2.93;;;2.73;;
10162;SDS011;5123;52.556;13.384;2023-07-02T00:37:54;3.27;;;2.97;;
10162;SDS011;5123;52.556;13.384;2023-07-02T00:40:27;5.87;;;3.30;;
10162;SDS011;5123;52.556;13.384;2023-07-02T00:43:02;3.40;;;3.10;;
10162;SDS011;5123;52.556;13.384;2023-07-02T00:45:37;3.53;;;3.30;;
10162;SDS011;5123;52.556;13.384;2023-07-02T00:48:11;3.87;;;3.43;;
10162;SDS011;5123;52.556;13.384;2023-07-02T00:50:43;5.40;;;3.33;;
10162;SDS011;5123;52.556;13.384;2023-07-02T00:53:18;3.70;;;3.33;;
10162;SDS011;5123;52.556;13.384;2023-07-02T00:55:51;4.20;;;3.80;;
10162;SDS011;5123;52.556;13.384;2023-07-02T00:58:23;4.10;;;3.80;;
10162;SDS011;5123;52.556;13.384;2023-07-02T01:00:58;4.23;;;3.83;;
10162;SDS011;5123;52.556;13.384;2023-07-02T01:03:31;3.93;;;3.63;;
10162;SDS011;5123;52.556;13.384;2023-07-02T01:06:04;4.97;;;4.27;;
10162;SDS011;5123;52.556;13.384;2023-07-02T01:08:38;4.50;;;4.10;;
10162;SDS011;5123;52.556;13.384;2023-07-02T01:11:13;4.40;;;4.00;;
10162;SDS011;5123;52.556;13.384;2023-07-02T01:13:46;4.20;;;3.90;;
10162;SDS011;5123;52.556;13.384;2023-07-02T01:16:19;4.57;;;4.07;;
10162;SDS011;5123;52.556;13.384;2023-07-02T01:18:53;4.67;;;4.27;;
10162;SDS011;5123;52.556;13.384;2023-07-02T01:21:27;6.53;;;4.57;;
10162;SDS011;5123;52.556;13.384;2023-07-02T01:24:00;5.03;;;4.53;;
10162;SDS011;5123;52.556;13.384;2023-07-02T01:26:33;5.23;;;4.43;;
10162;SDS011;5123;52.556;13.384;2023-07-02T01:29:15;5.87;;;4.80;;
10162;SDS011;5123;52.556;13.384;2023-07-02T01:31:48;5.23;;;4.73;;
10162;SDS011;5123;52.556;13.384;2023-07-02T01:34:20;5.90;;;5.10;;
10162;SDS011;5123;52.556;13.384;2023-07-02T01:36:54;5.80;;;5.30;;
10162;SDS011;5123;52.556;13.384;2023-07-02T01:39:27;5.80;;;5.30;;
10162;SDS011;5123;52.556;13.384;2023-07-02T01:42:09;5.90;;;5.40;;
10162;SDS011;5123;52.556;13.384;2023-07-02T01:44:44;6.57;;;5.97;;
10162;SDS011;5123;52.556;13.384;2023-07-02T01:47:17;6.30;;;5.70;;
10162;SDS011;5123;52.556;13.384;2023-07-02T01:49:53;6.17;;;5.67;;
10162;SDS011;5123;52.556;13.384;2023-07-02T01:52:27;8.13;;;5.80;;
10162;SDS011;5123;52.556;13.384;2023-07-02T01:55:04;8.63;;;6.00;;
10162;SDS011;5123;52.556;13.384;2023-07-02T01:57:39;6.70;;;5.93;;
10162;SDS011;5123;52.556;13.384;2023-07-02T02:00:12;6.47;;;5.63;;
10162;SDS011;5123;52.556;13.384;2023-07-02T02:02:45;8.90;;;6.23;;
10162;SDS011;5123;52.556;13.384;2023-07-02T02:05:18;6.80;;;6.20;;
10162;SDS011;5123;52.556;13.384;2023-07-02T02:07:52;7.80;;;7.03;;
10162;SDS011;5123;52.556;13.384;2023-07-02T02:10:25;8.10;;;7.30;;
10162;SDS011;5123;52.556;13.384;2023-07-02T02:12:58;8.13;;;7.33;;
10162;SDS011;5123;52.556;13.384;2023-07-02T02:15:31;8.80;;;7.63;;
10162;SDS011;5123;52.556;13.384;2023-07-02T02:18:03;8.47;;;7.67;;
10162;SDS011;5123;52.556;13.384;2023-07-02T02:20:36;7.53;;;6.93;;
10162;SDS011;5123;52.556;13.384;2023-07-02T02:23:13;8.60;;;7.30;;
10162;SDS011;5123;52.556;13.384;2023-07-02T02:25:46;8.33;;;7.30;;
10162;SDS011;5123;52.556;13.384;2023-07-02T02:28:20;7.23;;;6.63;;
10162;SDS011;5123;52.556;13.384;2023-07-02T02:30:56;8.80;;;7.23;;
10162;SDS011;5123;52.556;13.384;2023-07-02T02:33:29;10.37;;;7.63;;
10162;SDS011;5123;52.556;13.384;2023-07-02T02:36:04;8.47;;;7.77;;
10162;SDS011;5123;52.556;13.384;2023-07-02T02:38:38;8.67;;;7.87;;
10162;SDS011;5123;52.556;13.384;2023-07-02T02:41:11;9.07;;;7.37;;
10162;SDS011;5123;52.556;13.384;2023-07-02T02:43:43;7.93;;;7.13;;
10162;SDS011;5123;52.556;13.384;2023-07-02T02:46:21;7.50;;;6.90;;
10162;SDS011;5123;52.556;13.384;2023-07-02T02:48:54;7.77;;;6.97;;
10162;SDS011;5123;52.556;13.384;2023-07-02T02:51:30;8.33;;;7.53;;
10162;SDS011;5123;52.556;13.384;2023-07-02T02:54:04;8.17;;;7.37;;
10162;SDS011;5123;52.556;13.384;2023-07-02T02:56:36;8.80;;;7.50;;
10162;SDS011;5123;52.556;13.384;2023-07-02T02:59:09;7.13;;;6.47;;
10162;SDS011;5123;52.556;13.384;2023-07-02T03:01:44;8.40;;;7.60;;
10162;SDS011;5123;52.556;13.384;2023-07-02T03:04:18;8.13;;;7.33;;
10162;SDS011;5123;52.556;13.384;2023-07-02T03:06:57;7.47;;;6.67;;
10162;SDS011;5123;52.556;13.384;2023-07-02T03:09:31;7.40;;;6.70;;
10162;SDS011;5123;52.556;13.384;2023-07-02T03:12:07;9.50;;;7.07;;
10162;SDS011;5123;52.556;13.384;2023-07-02T03:14:40;6.97;;;6.30;;
10162;SDS011;5123;52.556;13.384;2023-07-02T03:17:23;7.37;;;6.70;;
10162;SDS011;5123;52.556;13.384;2023-07-02T03:19:55;8.67;;;6.33;;
10162;SDS011;5123;52.556;13.384;2023-07-02T03:22:28;7.27;;;6.40;;
10162;SDS011;5123;52.556;13.384;2023-07-02T03:25:05;7.43;;;6.83;;
10162;SDS011;5123;52.556;13.384;2023-07-02T03:27:38;7.00;;;6.40;;
10162;SDS011;5123;52.556;13.384;2023-07-02T03:30:15;7.57;;;6.93;;
10162;SDS011;5123;52.556;13.384;2023-07-02T03:32:48;6.83;;;6.10;;
10162;SDS011;5123;52.556;13.384;2023-07-02T03:35:20;11.77;;;6.80;;
10162;SDS011;5123;52.556;13.384;2023-07-02T03:37:53;10.07;;;7.40;;
10162;SDS011;5123;52.556;13.384;2023-07-02T03:40:27;7.50;;;6.80;;
10162;SDS011;5123;52.556;13.384;2023-07-02T03:43:02;7.07;;;6.37;;
10162;SDS011;5123;52.556;13.384;2023-07-02T03:45:35;5.30;;;4.80;;
10162;SDS011;5123;52.556;13.384;2023-07-02T03:48:08;6.60;;;6.00;;
10162;SDS011;5123;52.556;13.384;2023-07-02T03:50:41;6.03;;;5.50;;
10162;SDS011;5123;52.556;13.384;2023-07-02T03:53:15;7.40;;;6.50;;
10162;SDS011;5123;52.556;13.384;2023-07-02T03:55:49;5.77;;;5.27;;
10162;SDS011;5123;52.556;13.384;2023-07-02T03:58:22;7.53;;;5.90;;
10162;SDS011;5123;52.556;13.384;2023-07-02T04:00:54;6.00;;;4.87;;
10162;SDS011;5123;52.556;13.384;2023-07-02T04:03:27;5.73;;;5.10;;
10162;SDS011;5123;52.556;13.384;2023-07-02T04:06:00;6.20;;;5.37;;
10162;SDS011;5123;52.556;13.384;2023-07-02T04:08:33;6.20;;;5.30;;
10162;SDS011;5123;52.556;13.384;2023-07-02T04:11:07;5.47;;;4.97;;
10162;SDS011;5123;52.556;13.384;2023-07-02T04:13:39;5.77;;;5.23;;
10162;SDS011;5123;52.556;13.384;2023-07-02T04:16:12;5.03;;;4.13;;
10162;SDS011;5123;52.556;13.384;2023-07-02T04:18:45;5.47;;;4.97;;
10162;SDS011;5123;52.556;13.384;2023-07-02T04:21:17;5.43;;;4.87;;
10162;SDS011;5123;52.556;13.384;2023-07-02T04:23:50;5.00;;;4.50;;
10162;SDS011;5123;52.556;13.384;2023-07-02T04:26:25;5.60;;;4.77;;
10162;SDS011;5123;52.556;13.384;2023-07-02T04:29:23;5.03;;;4.53;;
10162;SDS011;5123;52.556;13.384;2023-07-02T04:31:56;6.17;;;4.67;;
10162;SDS011;5123;52.556;13.384;2023-07-02T04:34:29;5.13;;;4.63;;
10162;SDS011;5123;52.556;13.384;2023-07-02T04:37:02;4.70;;;4.30;;
10162;SDS011;5123;52.556;13.384;2023-07-02T04:39:34;5.30;;;4.57;;
10162;SDS011;5123;52.556;13.384;2023-07-02T04:42:09;5.67;;;5.13;;
10162;SDS011;5123;52.556;13.384;2023-07-02T04:44:46;5.37;;;4.87;;
10162;SDS011;5123;52.556;13.384;2023-07-02T04:47:24;5.67;;;4.40;;
10162;SDS011;5123;52.556;13.384;2023-07-02T04:49:58;5.27;;;4.27;;
10162;SDS011;5123;52.556;13.384;2023-07-02T04:52:31;5.90;;;4.20;;
10162;SDS011;5123;52.556;13.384;2023-07-02T04:55:06;5.17;;;4.53;;
10162;SDS011;5123;52.556;13.384;2023-07-02T04:57:40;4.87;;;4.17;;
10162;SDS011;5123;52.556;13.384;2023-07-02T05:00:17;5.50;;;4.70;;
10162;SDS011;5123;52.556;13.384;2023-07-02T05:02:53;4.90;;;4.20;;
10162;SDS011;5123;52.556;13.384;2023-07-02T05:05:26;4.50;;;4.10;;
10162;SDS011;5123;52.556;13.384;2023-07-02T05:07:58;4.37;;;3.97;;
10162;SDS011;5123;52.556;13.384;2023-07-02T05:10:31;4.70;;;4.23;;
10162;SDS011;5123;52.556;13.384;2023-07-02T05:13:05;4.87;;;3.97;;
10162;SDS011;5123;52.556;13.384;2023-07-02T05:15:38;7.93;;;4.27;;
10162;SDS011;5123;52.556;13.384;2023-07-02T05:18:12;6.30;;;4.00;;
10162;SDS011;5123;52.556;13.384;2023-07-02T05:20:45;3.93;;;3.50;;
10162;SDS011;5123;52.556;13.384;2023-07-02T05:23:18;6.17;;;4.23;;
10162;SDS011;5123;52.556;13.384;2023-07-02T05:25:51;6.37;;;3.93;;
10162;SDS011;5123;52.556;13.384;2023-07-02T05:28:25;6.53;;;4.00;;
10162;SDS011;5123;52.556;13.384;2023-07-02T05:30:58;4.60;;;3.30;;
10162;SDS011;5123;52.556;13.384;2023-07-02T05:33:30;3.23;;;2.93;;
10162;SDS011;5123;52.556;13.384;2023-07-02T05:36:06;7.97;;;3.90;;
10162;SDS011;5123;52.556;13.384;2023-07-02T05:38:41;4.97;;;4.20;;
10162;SDS011;5123;52.556;13.384;2023-07-02T05:41:17;4.73;;;3.80;;
10162;SDS011;5123;52.556;13.384;2023-07-02T05:43:51;4.57;;;3.63;;
10162;SDS011;5123;52.556;13.384;2023-07-02T05:46:24;6.10;;;3.70;;
10162;SDS011;5123;52.556;13.384;2023-07-02T05:48:57;6.37;;;3.53;;
10162;SDS011;5123;52.556;13.384;2023-07-02T05:51:31;4.33;;;3.90;;
10162;SDS011;5123;52.556;13.384;2023-07-02T05:54:05;3.67;;;3.27;;
10162;SDS011;5123;52.556;13.384;2023-07-02T05:56:37;7.13;;;3.57;;
10162;SDS011;5123;52.556;13.384;2023-07-02T05:59:12;3.33;;;2.90;;
10162;SDS011;5123;52.556;13.384;2023-07-02T06:01:49;4.33;;;3.40;;
10162;SDS011;5123;52.556;13.384;2023-07-02T06:04:21;3.67;;;3.37;;
10162;SDS011;5123;52.556;13.384;2023-07-02T06:06:54;3.30;;;2.60;;
10162;SDS011;5123;52.556;13.384;2023-07-02T06:09:29;3.07;;;2.77;;
10162;SDS011;5123;52.556;13.384;2023-07-02T06:12:02;4.47;;;3.13;;
10162;SDS011;5123;52.556;13.384;2023-07-02T06:14:37;3.23;;;2.87;;
10162;SDS011;5123;52.556;13.384;2023-07-02T06:17:09;4.20;;;3.20;;
10162;SDS011;5123;52.556;13.384;2023-07-02T06:19:44;3.20;;;2.93;;
10162;SDS011;5123;52.556;13.384;2023-07-02T06:22:17;3.37;;;2.73;;
10162;SDS011;5123;52.556;13.384;2023-07-02T06:24:49;6.10;;;2.90;;
10162;SDS011;5123;52.556;13.384;2023-07-02T06:27:24;5.17;;;3.10;;
10162;SDS011;5123;52.556;13.384;2023-07-02T06:30:01;4.33;;;3.20;;
10162;SDS011;5123;52.556;13.384;2023-07-02T06:32:34;9.27;;;3.17;;
10162;SDS011;5123;52.556;13.384;2023-07-02T06:35:07;4.43;;;3.37;;
10162;SDS011;5123;52.556;13.384;2023-07-02T06:37:40;4.50;;;3.07;;
10162;SDS011;5123;52.556;13.384;2023-07-02T06:40:15;5.47;;;3.00;;
10162;SDS011;5123;52.556;13.384;2023-07-02T06:42:49;3.53;;;2.90;;
10162;SDS011;5123;52.556;13.384;2023-07-02T06:45:23;4.80;;;3.33;;
10162;SDS011;5123;52.556;13.384;2023-07-02T06:47:55;3.73;;;3.10;;
10162;SDS011;5123;52.556;13.384;2023-07-02T06:50:28;7.40;;;3.13;;
10162;SDS011;5123;52.556;13.384;2023-07-02T06:53:01;4.40;;;3.00;;
10162;SDS011;5123;52.556;13.384;2023-07-02T06:55:38;3.97;;;2.80;;
10162;SDS011;5123;52.556;13.384;2023-07-02T06:58:14;3.27;;;2.80;;
10162;SDS011;5123;52.556;13.384;2023-07-02T07:00:51;3.83;;;2.87;;
10162;SDS011;5123;52.556;13.384;2023-07-02T07:03:24;3.87;;;3.10;;
10162;SDS011;5123;52.556;13.384;2023-07-02T07:05:59;6.03;;;3.37;;
10162;SDS011;5123;52.556;13.384;2023-07-02T07:08:36;3.67;;;3.13;;
10162;SDS011;5123;52.556;13.384;2023-07-02T07:11:12;5.90;;;3.30;;
10162;SDS011;5123;52.556;13.384;2023-07-02T07:13:44;5.07;;;3.43;;
10162;SDS011;5123;52.556;13.384;2023-07-02T07:16:18;3.97;;;2.87;;
10162;SDS011;5123;52.556;13.384;2023-07-02T07:18:51;4.90;;;3.03;;
10162;SDS011;5123;52.556;13.384;2023-07-02T07:21:24;2.80;;;2.60;;
10162;SDS011;5123;52.556;13.384;2023-07-02T07:23:57;3.93;;;3.27;;
10162;SDS011;5123;52.556;13.384;2023-07-02T07:26:29;3.93;;;3.00;;
10162;SDS011;5123;52.556;13.384;2023-07-02T07:29:03;4.00;;;3.00;;
10162;SDS011;5123;52.556;13.384;2023-07-02T07:31:37;6.37;;;2.90;;
10162;SDS011;5123;52.556;13.384;2023-07-02T07:34:10;3.20;;;2.90;;
10162;SDS011;5123;52.556;13.384;2023-07-02T07:36:46;5.83;;;3.33;;
10162;SDS011;5123;52.556;13.384;2023-07-02T07:39:18;3.67;;;3.10;;
10162;SDS011;5123;52.556;13.384;2023-07-02T07:41:51;6.77;;;3.33;;
10162;SDS011;5123;52.556;13.384;2023-07-02T07:44:26;3.67;;;3.33;;
10162;SDS011;5123;52.556;13.384;2023-07-02T07:47:02;3.73;;;3.37;;
10162;SDS011;5123;52.556;13.384;2023-07-02T07:49:34;3.77;;;3.37;;
10162;SDS011;5123;52.556;13.384;2023-07-02T07:52:08;3.83;;;3.43;;
10162;SDS011;5123;52.556;13.384;2023-07-02T07:54:41;6.10;;;3.03;;
10162;SDS011;5123;52.556;13.384;2023-07-02T07:57:14;7.77;;;3.00;;
10162;SDS011;5123;52.556;13.384;2023-07-02T07:59:47;3.83;;;3.43;;
10162;SDS011;5123;52.556;13.384;2023-07-02T08:02:21;7.47;;;4.30;;
10162;SDS011;5123;52.556;13.384;2023-07-02T08:04:54;3.43;;;3.03;;
10162;SDS011;5123;52.556;13.384;2023-07-02T08:07:27;4.93;;;3.00;;
10162;SDS011;5123;52.556;13.384;2023-07-02T08:10:04;5.13;;;3.27;;
10162;SDS011;5123;52.556;13.384;2023-07-02T08:12:37;5.10;;;3.37;;
10162;SDS011;5123;52.556;13.384;2023-07-02T08:15:10;3.40;;;3.10;;
10162;SDS011;5123;52.556;13.384;2023-07-02T08:17:44;3.70;;;3.20;;
10162;SDS011;5123;52.556;13.384;2023-07-02T08:20:16;6.07;;;3.70;;
10162;SDS011;5123;52.556;13.384;2023-07-02T08:22:49;4.53;;;3.43;;
10162;SDS011;5123;52.556;13.384;2023-07-02T08:25:26;4.47;;;3.27;;
10162;SDS011;5123;52.556;13.384;2023-07-02T08:28:00;4.70;;;3.30;;
10162;SDS011;5123;52.556;13.384;2023-07-02T08:30:35;4.13;;;3.50;;
10162;SDS011;5123;52.556;13.384;2023-07-02T08:33:09;4.47;;;3.80;;
10162;SDS011;5123;52.556;13.384;2023-07-02T08:35:42;4.67;;;3.50;;
10162;SDS011;5123;52.556;13.384;2023-07-02T08:38:14;3.97;;;3.60;;
10162;SDS011;5123;52.556;13.384;2023-07-02T08:40:48;4.20;;;3.70;;
10162;SDS011;5123;52.556;13.384;2023-07-02T08:43:21;4.07;;;3.67;;
10162;SDS011;5123;52.556;13.384;2023-07-02T08:45:56;5.03;;;3.77;;
10162;SDS011;5123;52.556;13.384;2023-07-02T08:48:33;3.67;;;3.23;;
10162;SDS011;5123;52.556;13.384;2023-07-02T08:51:07;4.63;;;3.53;;
10162;SDS011;5123;52.556;13.384;2023-07-02T08:53:42;5.10;;;3.70;;
10162;SDS011;5123;52.556;13.384;2023-07-02T08:56:19;7.67;;;3.83;;
10162;SDS011;5123;52.556;13.384;2023-07-02T08:58:53;5.33;;;3.80;;
10162;SDS011;5123;52.556;13.384;2023-07-02T09:01:26;6.00;;;4.20;;
10162;SDS011;5123;52.556;13.384;2023-07-02T09:04:00;5.70;;;3.63;;
10162;SDS011;5123;52.556;13.384;2023-07-02T09:06:33;5.53;;;3.60;;
10162;SDS011;5123;52.556;13.384;2023-07-02T09:09:06;8.10;;;4.17;;
10162;SDS011;5123;52.556;13.384;2023-07-02T09:11:48;7.63;;;4.23;;
10162;SDS011;5123;52.556;13.384;2023-07-02T09:14:24;5.57;;;3.83;;
10162;SDS011;5123;52.556;13.384;2023-07-02T09:17:04;5.93;;;4.37;;
10162;SDS011;5123;52.556;13.384;2023-07-02T09:19:49;7.23;;;4.33;;
10162;SDS011;5123;52.556;13.384;2023-07-02T09:22:22;4.80;;;4.10;;
10162;SDS011;5123;52.556;13.384;2023-07-02T09:24:55;6.43;;;3.80;;
10162;SDS011;5123;52.556;13.384;2023-07-02T09:27:35;5.37;;;3.90;;
10162;SDS011;5123;52.556;13.384;2023-07-02T09:30:09;7.70;;;4.30;;
10162;SDS011;5123;52.556;13.384;2023-07-02T09:32:44;7.00;;;4.70;;
10162;SDS011;5123;52.556;13.384;2023-07-02T09:35:19;6.83;;;4.90;;
10162;SDS011;5123;52.556;13.384;2023-07-02T09:37:52;6.67;;;4.93;;
10162;SDS011;5123;52.556;13.384;2023-07-02T09:40:25;7.10;;;4.80;;
10162;SDS011;5123;52.556;13.384;2023-07-02T09:43:02;9.33;;;4.83;;
10162;SDS011;5123;52.556;13.384;2023-07-02T09:45:34;7.67;;;4.67;;
10162;SDS011;5123;52.556;13.384;2023-07-02T09:48:09;9.33;;;5.13;;
10162;SDS011;5123;52.556;13.384;2023-07-02T09:50:45;9.83;;;5.33;;
10162;SDS011;5123;52.556;13.384;2023-07-02T09:53:19;8.23;;;5.60;;
10162;SDS011;5123;52.556;13.384;2023-07-02T09:55:54;8.33;;;4.80;;
10162;SDS011;5123;52.556;13.384;2023-07-02T09:58:27;7.27;;;5.33;;
10162;SDS011;5123;52.556;13.384;2023-07-02T10:01:03;9.93;;;5.60;;
10162;SDS011;5123;52.556;13.384;2023-07-02T10:03:35;8.83;;;5.73;;
10162;SDS011;5123;52.556;13.384;2023-07-02T10:06:10;10.63;;;6.43;;
10162;SDS011;5123;52.556;13.384;2023-07-02T10:08:51;10.97;;;6.00;;
10162;SDS011;5123;52.556;13.384;2023-07-02T10:11:32;9.67;;;5.97;;
10162;SDS011;5123;52.556;13.384;2023-07-02T10:14:05;8.77;;;5.90;;
10162;SDS011;5123;52.556;13.384;2023-07-02T10:16:51;13.50;;;6.27;;
10162;SDS011;5123;52.556;13.384;2023-07-02T10:19:24;10.90;;;6.10;;
10162;SDS011;5123;52.556;13.384;2023-07-02T10:22:04;9.43;;;5.67;;
10162;SDS011;5123;52.556;13.384;2023-07-02T10:24:49;15.47;;;6.60;;
10162;SDS011;5123;52.556;13.384;2023-07-02T10:27:32;7.87;;;5.70;;
10162;SDS011;5123;52.556;13.384;2023-07-02T10:30:06;8.30;;;6.07;;
10162;SDS011;5123;52.556;13.384;2023-07-02T10:32:39;13.00;;;5.70;;
10162;SDS011;5123;52.556;13.384;2023-07-02T10:35:13;7.80;;;5.67;;
10162;SDS011;5123;52.556;13.384;2023-07-02T10:37:49;10.10;;;5.60;;
10162;SDS011;5123;52.556;13.384;2023-07-02T10:40:22;8.80;;;5.50;;
10162;SDS011;5123;52.556;13.384;2023-07-02T10:42:55;6.70;;;4.90;;
10162;SDS011;5123;52.556;13.384;2023-07-02T10:45:33;7.67;;;4.93;;
10162;SDS011;5123;52.556;13.384;2023-07-02T10:48:08;14.63;;;6.87;;
10162;SDS011;5123;52.556;13.384;2023-07-02T10:50:42;9.50;;;5.70;;
10162;SDS011;5123;52.556;13.384;2023-07-02T10:53:17;6.40;;;5.50;;
10162;SDS011;5123;52.556;13.384;2023-07-02T10:55:53;10.37;;;5.33;;
10162;SDS011;5123;52.556;13.384;2023-07-02T10:58:41;10.97;;;6.10;;
10162;SDS011;5123;52.556;13.384;2023-07-02T11:01:14;9.97;;;5.50;;
10162;SDS011;5123;52.556;13.384;2023-07-02T11:03:57;7.93;;;5.40;;
10162;SDS011;5123;52.556;13.384;2023-07-02T11:06:31;10.73;;;5.90;;
10162;SDS011;5123;52.556;13.384;2023-07-02T11:09:14;9.97;;;5.23;;
10162;SDS011;5123;52.556;13.384;2023-07-02T11:11:56;9.97;;;6.13;;
10162;SDS011;5123;52.556;13.384;2023-07-02T11:14:31;10.23;;;5.33;;
10162;SDS011;5123;52.556;13.384;2023-07-02T11:17:07;10.90;;;5.30;;
10162;SDS011;5123;52.556;13.384;2023-07-02T11:19:39;12.43;;;5.33;;
10162;SDS011;5123;52.556;13.384;2023-07-02T11:22:12;8.20;;;5.27;;
10162;SDS011;5123;52.556;13.384;2023-07-02T11:24:46;10.83;;;6.20;;
10162;SDS011;5123;52.556;13.384;2023-07-02T11:27:20;11.53;;;6.03;;
10162;SDS011;5123;52.556;13.384;2023-07-02T11:29:58;10.33;;;5.90;;
10162;SDS011;5123;52.556;13.384;2023-07-02T11:32:31;14.53;;;6.53;;
10162;SDS011;5123;52.556;13.384;2023-07-02T11:35:04;8.37;;;4.50;;
10162;SDS011;5123;52.556;13.384;2023-07-02T11:37:40;8.27;;;5.30;;
10162;SDS011;5123;52.556;13.384;2023-07-02T11:40:14;12.77;;;6.73;;
10162;SDS011;5123;52.556;13.384;2023-07-02T11:42:49;11.97;;;5.67;;
10162;SDS011;5123;52.556;13.384;2023-07-02T11:45:22;10.17;;;5.63;;
10162;SDS011;5123;52.556;13.384;2023-07-02T11:47:55;12.20;;;6.03;;
10162;SDS011;5123;52.556;13.384;2023-07-02T11:50:28;6.67;;;4.90;;
10162;SDS011;5123;52.556;13.384;2023-07-02T11:53:02;11.20;;;5.90;;
10162;SDS011;5123;52.556;13.384;2023-07-02T11:55:38;9.30;;;5.17;;
10162;SDS011;5123;52.556;13.384;2023-07-02T11:58:11;12.00;;;6.40;;
10162;SDS011;5123;52.556;13.384;2023-07-02T12:00:44;9.43;;;5.97;;
10162;SDS011;5123;52.556;13.384;2023-07-02T12:03:18;13.37;;;6.80;;
10162;SDS011;5123;52.556;13.384;2023-07-02T12:05:51;10.40;;;5.50;;
10162;SDS011;5123;52.556;13.384;2023-07-02T12:08:24;10.73;;;6.13;;
10162;SDS011;5123;52.556;13.384;2023-07-02T12:10:58;10.00;;;6.17;;
10162;SDS011;5123;52.556;13.384;2023-07-02T12:13:34;10.90;;;5.87;;
10162;SDS011;5123;52.556;13.384;2023-07-02T12:16:06;9.07;;;5.93;;
10162;SDS011;5123;52.556;13.384;2023-07-02T12:18:39;7.10;;;5.00;;
10162;SDS011;5123;52.556;13.384;2023-07-02T12:21:12;10.37;;;6.30;;
10162;SDS011;5123;52.556;13.384;2023-07-02T12:23:47;10.97;;;5.73;;
10162;SDS011;5123;52.556;13.384;2023-07-02T12:26:21;8.67;;;6.10;;
10162;SDS011;5123;52.556;13.384;2023-07-02T12:28:54;7.80;;;4.93;;
10162;SDS011;5123;52.556;13.384;2023-07-02T12:31:27;12.43;;;6.37;;
10162;SDS011;5123;52.556;13.384;2023-07-02T12:34:00;11.07;;;6.07;;
10162;SDS011;5123;52.556;13.384;2023-07-02T12:36:33;9.07;;;5.60;;
10162;SDS011;5123;52.556;13.384;2023-07-02T12:39:07;8.97;;;5.87;;
10162;SDS011;5123;52.556;13.384;2023-07-02T12:41:41;7.63;;;5.63;;
10162;SDS011;5123;52.556;13.384;2023-07-02T12:44:14;10.73;;;5.63;;
10162;SDS011;5123;52.556;13.384;2023-07-02T12:46:47;10.93;;;6.13;;
10162;SDS011;5123;52.556;13.384;2023-07-02T12:49:19;10.73;;;6.03;;
10162;SDS011;5123;52.556;13.384;2023-07-02T12:51:52;9.07;;;5.50;;
10162;SDS011;5123;52.556;13.384;2023-07-02T12:54:25;9.67;;;6.10;;
10162;SDS011;5123;52.556;13.384;2023-07-02T12:56:59;10.77;;;6.03;;
10162;SDS011;5123;52.556;13.384;2023-07-02T12:59:32;12.63;;;5.60;;
10162;SDS011;5123;52.556;13.384;2023-07-02T13:02:05;8.33;;;5.13;;
10162;SDS011;5123;52.556;13.384;2023-07-02T13:04:38;14.60;;;7.00;;
10162;SDS011;5123;52.556;13.384;2023-07-02T13:07:11;12.57;;;6.10;;
10162;SDS011;5123;52.556;13.384;2023-07-02T13:09:44;11.07;;;5.90;;
10162;SDS011;5123;52.556;13.384;2023-07-02T13:12:18;10.07;;;6.83;;
10162;SDS011;5123;52.556;13.384;2023-07-02T13:14:51;10.33;;;6.13;;
10162;SDS011;5123;52.556;13.384;2023-07-02T13:17:24;11.23;;;6.27;;
10162;SDS011;5123;52.556;13.384;2023-07-02T13:19:56;11.27;;;6.70;;
10162;SDS011;5123;52.556;13.384;2023-07-02T13:22:29;12.37;;;6.57;;
10162;SDS011;5123;52.556;13.384;2023-07-02T13:25:02;10.70;;;5.20;;
10162;SDS011;5123;52.556;13.384;2023-07-02T13:27:38;9.93;;;5.97;;
10162;SDS011;5123;52.556;13.384;2023-07-02T13:30:13;9.40;;;5.87;;
10162;SDS011;5123;52.556;13.384;2023-07-02T13:32:48;9.63;;;5.40;;
10162;SDS011;5123;52.556;13.384;2023-07-02T13:35:21;10.27;;;6.40;;
10162;SDS011;5123;52.556;13.384;2023-07-02T13:37:54;9.83;;;5.47;;
10162;SDS011;5123;52.556;13.384;2023-07-02T13:40:27;7.80;;;5.33;;
10162;SDS011;5123;52.556;13.384;2023-07-02T13:43:03;14.33;;;6.30;;
10162;SDS011;5123;52.556;13.384;2023-07-02T13:45:39;10.83;;;6.03;;
10162;SDS011;5123;52.556;13.384;2023-07-02T13:48:12;12.00;;;6.40;;
10162;SDS011;5123;52.556;13.384;2023-07-02T13:50:45;12.20;;;6.40;;
10162;SDS011;5123;52.556;13.384;2023-07-02T13:53:17;9.30;;;5.33;;
10162;SDS011;5123;52.556;13.384;2023-07-02T13:55:52;9.47;;;5.83;;
10162;SDS011;5123;52.556;13.384;2023-07-02T13:58:26;12.23;;;6.17;;
10162;SDS011;5123;52.556;13.384;2023-07-02T14:01:02;10.20;;;5.37;;
10162;SDS011;5123;52.556;13.384;2023-07-02T14:03:35;10.77;;;5.80;;
10162;SDS011;5123;52.556;13.384;2023-07-02T14:06:08;14.83;;;6.23;;
10162;SDS011;5123;52.556;13.384;2023-07-02T14:08:41;10.17;;;6.50;;
10162;SDS011;5123;52.556;13.384;2023-07-02T14:11:13;9.17;;;6.07;;
10162;SDS011;5123;52.556;13.384;2023-07-02T14:13:46;10.33;;;5.77;;
10162;SDS011;5123;52.556;13.384;2023-07-02T14:16:20;9.50;;;6.10;;
10162;SDS011;5123;52.556;13.384;2023-07-02T14:18:53;12.93;;;6.70;;
10162;SDS011;5123;52.556;13.384;2023-07-02T14:21:27;11.93;;;6.73;;
10162;SDS011;5123;52.556;13.384;2023-07-02T14:24:00;10.20;;;5.67;;
10162;SDS011;5123;52.556;13.384;2023-07-02T14:26:32;8.13;;;5.50;;
10162;SDS011;5123;52.556;13.384;2023-07-02T14:29:05;8.33;;;5.20;;
10162;SDS011;5123;52.556;13.384;2023-07-02T14:31:42;10.27;;;5.97;;
10162;SDS011;5123;52.556;13.384;2023-07-02T14:34:15;10.90;;;6.37;;
10162;SDS011;5123;52.556;13.384;2023-07-02T14:36:47;7.80;;;5.57;;
10162;SDS011;5123;52.556;13.384;2023-07-02T14:39:20;9.00;;;5.13;;
10162;SDS011;5123;52.556;13.384;2023-07-02T14:41:53;8.67;;;4.97;;
10162;SDS011;5123;52.556;13.384;2023-07-02T14:44:26;6.90;;;4.90;;
10162;SDS011;5123;52.556;13.384;2023-07-02T14:47:00;8.03;;;5.63;;
10162;SDS011;5123;52.556;13.384;2023-07-02T14:49:33;9.53;;;6.03;;
10162;SDS011;5123;52.556;13.384;2023-07-02T14:52:07;12.47;;;6.07;;
10162;SDS011;5123;52.556;13.384;2023-07-02T14:54:40;6.83;;;5.37;;
10162;SDS011;5123;52.556;13.384;2023-07-02T14:57:12;11.73;;;5.50;;
10162;SDS011;5123;52.556;13.384;2023-07-02T14:59:48;9.30;;;5.40;;
10162;SDS011;5123;52.556;13.384;2023-07-02T15:02:24;8.90;;;5.17;;
10162;SDS011;5123;52.556;13.384;2023-07-02T15:04:57;8.43;;;5.50;;
10162;SDS011;5123;52.556;13.384;2023-07-02T15:07:31;10.73;;;5.20;;
10162;SDS011;5123;52.556;13.384;2023-07-02T15:10:04;7.30;;;4.63;;
10162;SDS011;5123;52.556;13.384;2023-07-02T15:12:38;9.60;;;6.30;;
10162;SDS011;5123;52.556;13.384;2023-07-02T15:15:13;10.67;;;5.43;;
10162;SDS011;5123;52.556;13.384;2023-07-02T15:17:48;9.07;;;5.13;;
10162;SDS011;5123;52.556;13.384;2023-07-02T15:20:23;8.87;;;5.47;;
10162;SDS011;5123;52.556;13.384;2023-07-02T15:22:56;8.50;;;5.30;;
10162;SDS011;5123;52.556;13.384;2023-07-02T15:25:29;8.87;;;5.43;;
10162;SDS011;5123;52.556;13.384;2023-07-02T15:28:02;9.80;;;6.33;;